sensor_id;sensor_type;location;lat;lon;timestamp;temperature;humidity
61374;DHT22;47242;48.158;-1.586;2024-01-30T05:32:07;11.40;81.00
61374;DHT22;47242;48.158;-1.586;2024-01-30T05:34:34;11.40;81.10
61374;DHT22;47242;48.158;-1.586;2024-01-30T05:36:59;11.50;81.10
61374;DHT22;47242;48.158;-1.586;2024-01-30T05:39:25;11.40;80.70
61374;DHT22;47242;48.158;-1.586;2024-01-30T05:41:50;11.40;80.80
61374;DHT22;47242;48.158;-1.586;2024-01-30T05:44:16;11.40;80.70
61374;DHT22;47242;48.158;-1.586;2024-01-30T05:46:42;11.40;80.80
61374;DHT22;47242;48.158;-1.586;2024-01-30T05:49:07;11.40;80.80
61374;DHT22;47242;48.158;-1.586;2024-01-30T05:51:33;11.30;80.30
61374;DHT22;47242;48.158;-1.586;2024-01-30T05:53:59;11.40;80.40
61374;DHT22;47242;48.158;-1.586;2024-01-30T05:56:24;11.30;80.40
61374;DHT22;47242;48.158;-1.586;2024-01-30T05:58:50;11.30;80.40
61374;DHT22;47242;48.158;-1.586;2024-01-30T06:01:16;11.40;80.60
61374;DHT22;47242;48.158;-1.586;2024-01-30T06:03:42;11.30;80.30
61374;DHT22;47242;48.158;-1.586;2024-01-30T06:06:09;11.30;80.30
61374;DHT22;47242;48.158;-1.586;2024-01-30T06:08:34;11.30;80.00
61374;DHT22;47242;48.158;-1.586;2024-01-30T06:11:00;11.30;80.00
61374;DHT22;47242;48.158;-1.586;2024-01-30T06:13:26;11.30;80.00
61374;DHT22;47242;48.158;-1.586;2024-01-30T06:15:52;11.30;80.10
61374;DHT22;47242;48.158;-1.586;2024-01-30T06:18:18;11.30;79.70
61374;DHT22;47242;48.158;-1.586;2024-01-30T06:20:43;11.30;80.00
61374;DHT22;47242;48.158;-1.586;2024-01-30T06:23:09;11.30;79.70
61374;DHT22;47242;48.158;-1.586;2024-01-30T06:25:35;11.20;79.30
61374;DHT22;47242;48.158;-1.586;2024-01-30T06:28:01;11.20;79.10
61374;DHT22;47242;48.158;-1.586;2024-01-30T06:30:26;11.10;79.40
61374;DHT22;47242;48.158;-1.586;2024-01-30T06:32:52;11.10;79.40
61374;DHT22;47242;48.158;-1.586;2024-01-30T06:35:18;10.90;79.30
61374;DHT22;47242;48.158;-1.586;2024-01-30T06:37:43;10.80;79.30
61374;DHT22;47242;48.158;-1.586;2024-01-30T06:40:09;10.80;79.50
61374;DHT22;47242;48.158;-1.586;2024-01-30T06:42:35;10.70;80.10
61374;DHT22;47242;48.158;-1.586;2024-01-30T06:45:01;10.60;79.80
61374;DHT22;47242;48.158;-1.586;2024-01-30T06:47:26;10.50;79.90
61374;DHT22;47242;48.158;-1.586;2024-01-30T06:49:52;10.40;80.10
61374;DHT22;47242;48.158;-1.586;2024-01-30T06:52:18;10.30;80.30
61374;DHT22;47242;48.158;-1.586;2024-01-30T06:54:44;10.30;80.60
61374;DHT22;47242;48.158;-1.586;2024-01-30T06:57:09;10.20;80.70
61374;DHT22;47242;48.158;-1.586;2024-01-30T06:59:37;10.20;80.70
61374;DHT22;47242;48.158;-1.586;2024-01-30T07:02:09;10.10;80.90
61374;DHT22;47242;48.158;-1.586;2024-01-30T07:04:35;10.00;80.90
61374;DHT22;47242;48.158;-1.586;2024-01-30T07:07:03;10.00;81.00
61374;DHT22;47242;48.158;-1.586;2024-01-30T07:09:30;9.90;81.40
61374;DHT22;47242;48.158;-1.586;2024-01-30T07:11:56;9.90;81.50
61374;DHT22;47242;48.158;-1.586;2024-01-30T07:14:24;9.90;81.60
61374;DHT22;47242;48.158;-1.586;2024-01-30T07:16:49;9.80;81.80
61374;DHT22;47242;48.158;-1.586;2024-01-30T07:19:16;9.80;81.70
61374;DHT22;47242;48.158;-1.586;2024-01-30T07:21:41;9.80;81.80
61374;DHT22;47242;48.158;-1.586;2024-01-30T07:24:07;9.80;81.90
61374;DHT22;47242;48.158;-1.586;2024-01-30T07:26:33;9.70;81.90
61374;DHT22;47242;48.158;-1.586;2024-01-30T07:28:58;9.70;81.70
61374;DHT22;47242;48.158;-1.586;2024-01-30T07:31:24;9.60;81.90
61374;DHT22;47242;48.158;-1.586;2024-01-30T07:33:49;9.60;82.10
61374;DHT22;47242;48.158;-1.586;2024-01-30T07:36:15;9.60;82.30
61374;DHT22;47242;48.158;-1.586;2024-01-30T07:38:41;9.60;82.40
61374;DHT22;47242;48.158;-1.586;2024-01-30T07:41:06;9.60;82.30
61374;DHT22;47242;48.158;-1.586;2024-01-30T07:43:35;9.70;82.20
61374;DHT22;47242;48.158;-1.586;2024-01-30T07:46:01;9.70;82.20
61374;DHT22;47242;48.158;-1.586;2024-01-30T07:48:28;9.70;82.30
61374;DHT22;47242;48.158;-1.586;2024-01-30T07:50:53;9.70;82.70
61374;DHT22;47242;48.158;-1.586;2024-01-30T07:53:19;9.60;82.40
61374;DHT22;47242;48.158;-1.586;2024-01-30T07:55:45;9.70;82.40
61374;DHT22;47242;48.158;-1.586;2024-01-30T07:58:12;9.70;82.40
61374;DHT22;47242;48.158;-1.586;2024-01-30T08:00:38;9.80;82.20
61374;DHT22;47242;48.158;-1.586;2024-01-30T08:03:04;9.80;82.30
61374;DHT22;47242;48.158;-1.586;2024-01-30T08:05:30;9.80;82.20
61374;DHT22;47242;48.158;-1.586;2024-01-30T08:07:56;9.90;82.20
61374;DHT22;47242;48.158;-1.586;2024-01-30T08:10:21;9.90;82.10
61374;DHT22;47242;48.158;-1.586;2024-01-30T08:12:47;10.00;81.90
61374;DHT22;47242;48.158;-1.586;2024-01-30T08:15:13;10.00;81.90
61374;DHT22;47242;48.158;-1.586;2024-01-30T08:17:39;10.00;81.90
61374;DHT22;47242;48.158;-1.586;2024-01-30T08:20:05;10.00;81.70
61374;DHT22;47242;48.158;-1.586;2024-01-30T08:22:31;10.00;81.50
61374;DHT22;47242;48.158;-1.586;2024-01-30T08:24:57;10.00;81.30
61374;DHT22;47242;48.158;-1.586;2024-01-30T08:27:22;10.00;81.40
61374;DHT22;47242;48.158;-1.586;2024-01-30T08:29:48;10.10;81.40
61374;DHT22;47242;48.158;-1.586;2024-01-30T08:32:15;10.00;81.20
61374;DHT22;47242;48.158;-1.586;2024-01-30T08:34:41;9.90;81.10
61374;DHT22;47242;48.158;-1.586;2024-01-30T08:37:06;9.90;81.40
61374;DHT22;47242;48.158;-1.586;2024-01-30T08:39:32;9.80;81.60
61374;DHT22;47242;48.158;-1.586;2024-01-30T08:41:58;9.80;81.70
61374;DHT22;47242;48.158;-1.586;2024-01-30T08:44:23;9.80;81.70
61374;DHT22;47242;48.158;-1.586;2024-01-30T08:46:49;9.80;81.80
61374;DHT22;47242;48.158;-1.586;2024-01-30T08:49:16;9.80;81.70
61374;DHT22;47242;48.158;-1.586;2024-01-30T08:51:42;9.70;81.80
61374;DHT22;47242;48.158;-1.586;2024-01-30T08:54:07;9.80;81.70
61374;DHT22;47242;48.158;-1.586;2024-01-30T08:56:33;9.80;81.80
61374;DHT22;47242;48.158;-1.586;2024-01-30T08:58:59;9.80;81.60
61374;DHT22;47242;48.158;-1.586;2024-01-30T09:01:25;9.90;81.70
61374;DHT22;47242;48.158;-1.586;2024-01-30T09:03:51;9.90;81.70
61374;DHT22;47242;48.158;-1.586;2024-01-30T09:06:16;9.90;81.50
61374;DHT22;47242;48.158;-1.586;2024-01-30T09:08:42;10.00;81.20
61374;DHT22;47242;48.158;-1.586;2024-01-30T09:11:14;10.10;81.20
61374;DHT22;47242;48.158;-1.586;2024-01-30T09:13:41;10.20;81.00
61374;DHT22;47242;48.158;-1.586;2024-01-30T09:16:07;10.30;80.70
61374;DHT22;47242;48.158;-1.586;2024-01-30T09:18:33;10.30;79.80
61374;DHT22;47242;48.158;-1.586;2024-01-30T09:20:59;10.30;80.20
61374;DHT22;47242;48.158;-1.586;2024-01-30T09:23:25;10.60;80.00
61374;DHT22;47242;48.158;-1.586;2024-01-30T09:25:50;11.10;79.30
61374;DHT22;47242;48.158;-1.586;2024-01-30T09:28:17;12.00;77.40
61374;DHT22;47242;48.158;-1.586;2024-01-30T09:30:43;13.20;75.30
61374;DHT22;47242;48.158;-1.586;2024-01-30T09:33:09;14.50;71.60
61374;DHT22;47242;48.158;-1.586;2024-01-30T09:35:35;15.70;67.80
61374;DHT22;47242;48.158;-1.586;2024-01-30T09:38:02;16.70;64.10
61374;DHT22;47242;48.158;-1.586;2024-01-30T09:40:28;17.40;61.50
61374;DHT22;47242;48.158;-1.586;2024-01-30T09:42:54;18.10;59.50
61374;DHT22;47242;48.158;-1.586;2024-01-30T09:45:24;18.60;57.40
61374;DHT22;47242;48.158;-1.586;2024-01-30T09:47:50;18.80;55.70
61374;DHT22;47242;48.158;-1.586;2024-01-30T09:50:16;18.80;54.60
61374;DHT22;47242;48.158;-1.586;2024-01-30T09:52:46;18.80;54.80
61374;DHT22;47242;48.158;-1.586;2024-01-30T09:55:12;18.30;54.60
61374;DHT22;47242;48.158;-1.586;2024-01-30T09:57:38;17.70;56.60
61374;DHT22;47242;48.158;-1.586;2024-01-30T10:00:05;16.80;58.70
61374;DHT22;47242;48.158;-1.586;2024-01-30T10:02:34;15.90;59.80
61374;DHT22;47242;48.158;-1.586;2024-01-30T10:05:00;15.10;62.00
61374;DHT22;47242;48.158;-1.586;2024-01-30T10:07:26;14.70;63.90
61374;DHT22;47242;48.158;-1.586;2024-01-30T10:09:53;14.40;65.50
61374;DHT22;47242;48.158;-1.586;2024-01-30T10:12:19;14.00;65.90
61374;DHT22;47242;48.158;-1.586;2024-01-30T10:14:44;13.70;67.00
61374;DHT22;47242;48.158;-1.586;2024-01-30T10:17:11;13.40;67.70
61374;DHT22;47242;48.158;-1.586;2024-01-30T10:19:38;13.20;68.80
61374;DHT22;47242;48.158;-1.586;2024-01-30T10:22:04;13.10;69.20
61374;DHT22;47242;48.158;-1.586;2024-01-30T10:24:29;12.90;69.20
61374;DHT22;47242;48.158;-1.586;2024-01-30T10:26:55;12.80;70.00
61374;DHT22;47242;48.158;-1.586;2024-01-30T10:29:21;12.80;70.50
61374;DHT22;47242;48.158;-1.586;2024-01-30T10:31:58;12.80;70.20
61374;DHT22;47242;48.158;-1.586;2024-01-30T10:34:23;12.80;70.40
61374;DHT22;47242;48.158;-1.586;2024-01-30T10:36:50;12.80;70.10
61374;DHT22;47242;48.158;-1.586;2024-01-30T10:39:22;12.70;70.60
61374;DHT22;47242;48.158;-1.586;2024-01-30T10:41:52;12.70;71.20
61374;DHT22;47242;48.158;-1.586;2024-01-30T10:44:22;12.70;70.70
61374;DHT22;47242;48.158;-1.586;2024-01-30T10:47:03;12.70;70.60
61374;DHT22;47242;48.158;-1.586;2024-01-30T10:49:32;12.60;70.10
61374;DHT22;47242;48.158;-1.586;2024-01-30T10:51:58;12.60;70.80
61374;DHT22;47242;48.158;-1.586;2024-01-30T10:54:25;12.60;70.70
61374;DHT22;47242;48.158;-1.586;2024-01-30T10:56:52;12.60;70.20
61374;DHT22;47242;48.158;-1.586;2024-01-30T10:59:18;12.70;70.50
61374;DHT22;47242;48.158;-1.586;2024-01-30T11:01:45;12.70;69.90
61374;DHT22;47242;48.158;-1.586;2024-01-30T11:04:11;12.70;69.60
61374;DHT22;47242;48.158;-1.586;2024-01-30T11:06:43;12.70;70.10
61374;DHT22;47242;48.158;-1.586;2024-01-30T11:09:11;12.70;69.30
61374;DHT22;47242;48.158;-1.586;2024-01-30T11:11:57;12.80;69.50
61374;DHT22;47242;48.158;-1.586;2024-01-30T11:14:28;12.90;68.60
61374;DHT22;47242;48.158;-1.586;2024-01-30T11:17:00;12.90;67.80
61374;DHT22;47242;48.158;-1.586;2024-01-30T11:19:26;12.70;68.80
61374;DHT22;47242;48.158;-1.586;2024-01-30T11:21:53;12.60;69.60
61374;DHT22;47242;48.158;-1.586;2024-01-30T11:24:28;12.50;69.80
61374;DHT22;47242;48.158;-1.586;2024-01-30T11:26:58;12.60;69.40
61374;DHT22;47242;48.158;-1.586;2024-01-30T11:29:28;12.70;69.90
61374;DHT22;47242;48.158;-1.586;2024-01-30T11:31:58;12.70;69.90
61374;DHT22;47242;48.158;-1.586;2024-01-30T11:34:24;12.90;69.40
61374;DHT22;47242;48.158;-1.586;2024-01-30T11:36:56;12.80;69.80
61374;DHT22;47242;48.158;-1.586;2024-01-30T11:39:26;12.80;70.20
61374;DHT22;47242;48.158;-1.586;2024-01-30T11:41:52;12.80;70.40
61374;DHT22;47242;48.158;-1.586;2024-01-30T11:44:22;12.80;70.70
61374;DHT22;47242;48.158;-1.586;2024-01-30T11:46:49;12.70;70.90
61374;DHT22;47242;48.158;-1.586;2024-01-30T11:49:15;12.60;71.10
61374;DHT22;47242;48.158;-1.586;2024-01-30T11:51:41;12.70;71.70
61374;DHT22;47242;48.158;-1.586;2024-01-30T11:54:07;13.00;71.40
61374;DHT22;47242;48.158;-1.586;2024-01-30T11:56:33;13.30;70.40
61374;DHT22;47242;48.158;-1.586;2024-01-30T11:58:59;13.40;69.70
61374;DHT22;47242;48.158;-1.586;2024-01-30T12:01:26;13.60;69.20
61374;DHT22;47242;48.158;-1.586;2024-01-30T12:03:52;13.60;67.10
61374;DHT22;47242;48.158;-1.586;2024-01-30T12:06:18;13.40;67.70
61374;DHT22;47242;48.158;-1.586;2024-01-30T12:08:57;13.50;68.20
61374;DHT22;47242;48.158;-1.586;2024-01-30T12:11:23;13.30;67.90
61374;DHT22;47242;48.158;-1.586;2024-01-30T12:13:50;13.20;68.30
61374;DHT22;47242;48.158;-1.586;2024-01-30T12:16:16;13.20;68.50
61374;DHT22;47242;48.158;-1.586;2024-01-30T12:18:41;13.10;68.60
61374;DHT22;47242;48.158;-1.586;2024-01-30T12:21:07;13.00;68.50
61374;DHT22;47242;48.158;-1.586;2024-01-30T12:23:35;13.00;68.60
61374;DHT22;47242;48.158;-1.586;2024-01-30T12:26:01;12.80;68.10
61374;DHT22;47242;48.158;-1.586;2024-01-30T12:28:29;12.80;68.20
61374;DHT22;47242;48.158;-1.586;2024-01-30T12:30:56;12.80;68.90
61374;DHT22;47242;48.158;-1.586;2024-01-30T12:33:27;12.90;68.00
61374;DHT22;47242;48.158;-1.586;2024-01-30T12:35:53;13.00;68.00
61374;DHT22;47242;48.158;-1.586;2024-01-30T12:38:19;13.00;67.90
61374;DHT22;47242;48.158;-1.586;2024-01-30T12:40:45;12.90;67.80
61374;DHT22;47242;48.158;-1.586;2024-01-30T12:43:13;12.90;67.90
61374;DHT22;47242;48.158;-1.586;2024-01-30T12:45:40;13.00;67.90
61374;DHT22;47242;48.158;-1.586;2024-01-30T12:48:06;13.00;67.20
61374;DHT22;47242;48.158;-1.586;2024-01-30T12:50:32;13.00;67.80
61374;DHT22;47242;48.158;-1.586;2024-01-30T12:52:58;13.20;67.90
61374;DHT22;47242;48.158;-1.586;2024-01-30T12:55:24;13.20;67.80
61374;DHT22;47242;48.158;-1.586;2024-01-30T12:57:50;13.30;67.40
61374;DHT22;47242;48.158;-1.586;2024-01-30T13:00:16;13.30;67.10
61374;DHT22;47242;48.158;-1.586;2024-01-30T13:02:42;13.30;64.90
61374;DHT22;47242;48.158;-1.586;2024-01-30T13:05:10;13.20;62.20
61374;DHT22;47242;48.158;-1.586;2024-01-30T13:07:36;13.20;62.60
61374;DHT22;47242;48.158;-1.586;2024-01-30T13:10:02;13.30;63.20
61374;DHT22;47242;48.158;-1.586;2024-01-30T13:12:29;13.20;62.90
61374;DHT22;47242;48.158;-1.586;2024-01-30T13:14:55;13.00;63.30
61374;DHT22;47242;48.158;-1.586;2024-01-30T13:17:21;13.00;64.00
61374;DHT22;47242;48.158;-1.586;2024-01-30T13:19:47;13.10;63.70
61374;DHT22;47242;48.158;-1.586;2024-01-30T13:22:15;13.20;62.70
61374;DHT22;47242;48.158;-1.586;2024-01-30T13:24:40;13.50;61.50
61374;DHT22;47242;48.158;-1.586;2024-01-30T13:27:07;13.50;60.10
61374;DHT22;47242;48.158;-1.586;2024-01-30T13:29:32;13.50;61.50
61374;DHT22;47242;48.158;-1.586;2024-01-30T13:31:58;13.30;61.80
61374;DHT22;47242;48.158;-1.586;2024-01-30T13:34:24;13.20;62.40
61374;DHT22;47242;48.158;-1.586;2024-01-30T13:36:50;13.30;61.90
61374;DHT22;47242;48.158;-1.586;2024-01-30T13:39:16;13.50;62.40
61374;DHT22;47242;48.158;-1.586;2024-01-30T13:41:42;13.70;61.90
61374;DHT22;47242;48.158;-1.586;2024-01-30T13:44:08;13.60;62.30
61374;DHT22;47242;48.158;-1.586;2024-01-30T13:46:35;13.70;62.60
61374;DHT22;47242;48.158;-1.586;2024-01-30T13:49:01;13.80;62.60
61374;DHT22;47242;48.158;-1.586;2024-01-30T13:51:27;13.80;61.70
61374;DHT22;47242;48.158;-1.586;2024-01-30T13:53:53;13.80;62.20
61374;DHT22;47242;48.158;-1.586;2024-01-30T13:56:19;13.70;62.20
61374;DHT22;47242;48.158;-1.586;2024-01-30T13:58:47;13.60;62.40
61374;DHT22;47242;48.158;-1.586;2024-01-30T14:01:13;13.50;61.90
61374;DHT22;47242;48.158;-1.586;2024-01-30T14:03:39;13.40;61.80
61374;DHT22;47242;48.158;-1.586;2024-01-30T14:06:04;13.30;61.70
61374;DHT22;47242;48.158;-1.586;2024-01-30T14:08:31;13.20;60.80
61374;DHT22;47242;48.158;-1.586;2024-01-30T14:10:57;13.10;59.80
61374;DHT22;47242;48.158;-1.586;2024-01-30T14:13:22;13.00;60.90
61374;DHT22;47242;48.158;-1.586;2024-01-30T14:15:49;12.90;61.00
61374;DHT22;47242;48.158;-1.586;2024-01-30T14:18:15;12.90;60.50
61374;DHT22;47242;48.158;-1.586;2024-01-30T14:20:41;12.80;60.70
61374;DHT22;47242;48.158;-1.586;2024-01-30T14:23:07;12.70;60.50
61374;DHT22;47242;48.158;-1.586;2024-01-30T14:25:32;12.70;60.70
61374;DHT22;47242;48.158;-1.586;2024-01-30T14:27:58;12.60;60.70
61374;DHT22;47242;48.158;-1.586;2024-01-30T14:30:24;12.50;61.30
61374;DHT22;47242;48.158;-1.586;2024-01-30T14:32:50;12.70;61.40
61374;DHT22;47242;48.158;-1.586;2024-01-30T14:35:16;12.70;59.90
61374;DHT22;47242;48.158;-1.586;2024-01-30T14:37:41;12.80;60.90
61374;DHT22;47242;48.158;-1.586;2024-01-30T14:40:08;12.80;60.70
61374;DHT22;47242;48.158;-1.586;2024-01-30T14:42:33;12.90;60.30
61374;DHT22;47242;48.158;-1.586;2024-01-30T14:45:00;12.80;59.50
61374;DHT22;47242;48.158;-1.586;2024-01-30T14:47:26;12.80;59.80
61374;DHT22;47242;48.158;-1.586;2024-01-30T14:49:52;12.80;60.20
61374;DHT22;47242;48.158;-1.586;2024-01-30T14:52:18;12.70;60.60
61374;DHT22;47242;48.158;-1.586;2024-01-30T14:54:43;12.80;60.80
61374;DHT22;47242;48.158;-1.586;2024-01-30T14:57:09;12.80;60.00
61374;DHT22;47242;48.158;-1.586;2024-01-30T14:59:36;12.80;60.00
61374;DHT22;47242;48.158;-1.586;2024-01-30T15:02:01;12.70;60.20
61374;DHT22;47242;48.158;-1.586;2024-01-30T15:04:27;12.60;60.60
61374;DHT22;47242;48.158;-1.586;2024-01-30T15:06:53;12.60;60.80
61374;DHT22;47242;48.158;-1.586;2024-01-30T15:09:19;12.50;60.90
61374;DHT22;47242;48.158;-1.586;2024-01-30T15:11:47;12.60;60.80
61374;DHT22;47242;48.158;-1.586;2024-01-30T15:14:14;12.50;61.20
61374;DHT22;47242;48.158;-1.586;2024-01-30T15:16:40;12.50;61.80
61374;DHT22;47242;48.158;-1.586;2024-01-30T15:19:06;12.50;61.60
61374;DHT22;47242;48.158;-1.586;2024-01-30T15:21:32;12.40;61.50
61374;DHT22;47242;48.158;-1.586;2024-01-30T15:23:57;12.40;62.00
61374;DHT22;47242;48.158;-1.586;2024-01-30T15:26:23;12.40;61.90
61374;DHT22;47242;48.158;-1.586;2024-01-30T15:28:50;12.30;61.70
61374;DHT22;47242;48.158;-1.586;2024-01-30T15:31:16;12.30;62.10
61374;DHT22;47242;48.158;-1.586;2024-01-30T15:33:41;12.30;61.40
61374;DHT22;47242;48.158;-1.586;2024-01-30T15:36:08;12.20;61.70
61374;DHT22;47242;48.158;-1.586;2024-01-30T15:38:34;12.20;62.20
61374;DHT22;47242;48.158;-1.586;2024-01-30T15:41:00;12.20;62.50
61374;DHT22;47242;48.158;-1.586;2024-01-30T15:43:26;12.20;62.20
61374;DHT22;47242;48.158;-1.586;2024-01-30T15:45:52;12.20;62.30
61374;DHT22;47242;48.158;-1.586;2024-01-30T15:48:19;12.30;62.30
61374;DHT22;47242;48.158;-1.586;2024-01-30T15:50:44;12.40;62.50
61374;DHT22;47242;48.158;-1.586;2024-01-30T15:53:10;12.30;62.10
61374;DHT22;47242;48.158;-1.586;2024-01-30T15:55:36;12.30;62.10
61374;DHT22;47242;48.158;-1.586;2024-01-30T15:58:03;12.30;62.50
61374;DHT22;47242;48.158;-1.586;2024-01-30T16:00:29;12.30;62.60
61374;DHT22;47242;48.158;-1.586;2024-01-30T16:02:54;12.30;62.20
61374;DHT22;47242;48.158;-1.586;2024-01-30T16:05:20;12.20;62.80
61374;DHT22;47242;48.158;-1.586;2024-01-30T16:07:45;12.20;63.40
61374;DHT22;47242;48.158;-1.586;2024-01-30T16:10:12;12.20;63.20
61374;DHT22;47242;48.158;-1.586;2024-01-30T16:12:42;12.20;63.00
61374;DHT22;47242;48.158;-1.586;2024-01-30T16:15:11;12.20;63.10
61374;DHT22;47242;48.158;-1.586;2024-01-30T16:17:36;12.10;62.10
61374;DHT22;47242;48.158;-1.586;2024-01-30T16:20:02;12.10;62.70
61374;DHT22;47242;48.158;-1.586;2024-01-30T16:22:28;12.00;62.10
61374;DHT22;47242;48.158;-1.586;2024-01-30T16:24:54;11.90;62.00
61374;DHT22;47242;48.158;-1.586;2024-01-30T16:27:20;11.80;61.90
61374;DHT22;47242;48.158;-1.586;2024-01-30T16:29:45;11.80;61.30
61374;DHT22;47242;48.158;-1.586;2024-01-30T16:32:11;11.70;61.20
61374;DHT22;47242;48.158;-1.586;2024-01-30T16:34:36;11.60;62.10
61374;DHT22;47242;48.158;-1.586;2024-01-30T16:37:02;11.70;62.10
61374;DHT22;47242;48.158;-1.586;2024-01-30T16:39:28;11.70;62.20
61374;DHT22;47242;48.158;-1.586;2024-01-30T16:41:53;11.70;62.60
61374;DHT22;47242;48.158;-1.586;2024-01-30T16:44:19;11.70;62.30
61374;DHT22;47242;48.158;-1.586;2024-01-30T16:46:45;11.70;62.20
61374;DHT22;47242;48.158;-1.586;2024-01-30T16:49:10;11.60;62.50
61374;DHT22;47242;48.158;-1.586;2024-01-30T16:51:36;11.60;62.70
61374;DHT22;47242;48.158;-1.586;2024-01-30T16:54:01;11.60;63.10
61374;DHT22;47242;48.158;-1.586;2024-01-30T16:56:27;11.60;62.80
61374;DHT22;47242;48.158;-1.586;2024-01-30T16:58:53;11.50;62.50
61374;DHT22;47242;48.158;-1.586;2024-01-30T17:01:18;11.40;62.70
61374;DHT22;47242;48.158;-1.586;2024-01-30T17:03:44;11.50;62.70
61374;DHT22;47242;48.158;-1.586;2024-01-30T17:06:13;11.40;63.00
61374;DHT22;47242;48.158;-1.586;2024-01-30T17:08:38;11.30;62.70
61374;DHT22;47242;48.158;-1.586;2024-01-30T17:11:04;11.20;62.50
61374;DHT22;47242;48.158;-1.586;2024-01-30T17:13:30;11.20;62.70
61374;DHT22;47242;48.158;-1.586;2024-01-30T17:15:56;11.10;62.50
61374;DHT22;47242;48.158;-1.586;2024-01-30T17:18:22;11.00;62.30
61374;DHT22;47242;48.158;-1.586;2024-01-30T17:20:48;11.00;62.50
61374;DHT22;47242;48.158;-1.586;2024-01-30T17:23:14;10.90;62.80
61374;DHT22;47242;48.158;-1.586;2024-01-30T17:25:55;10.90;63.30
61374;DHT22;47242;48.158;-1.586;2024-01-30T17:28:32;10.80;62.70
61374;DHT22;47242;48.158;-1.586;2024-01-30T17:30:58;10.70;62.80
61374;DHT22;47242;48.158;-1.586;2024-01-30T17:33:51;10.70;63.20
61374;DHT22;47242;48.158;-1.586;2024-01-30T17:36:16;10.80;63.60
61374;DHT22;47242;48.158;-1.586;2024-01-30T17:38:44;10.70;64.70
61374;DHT22;47242;48.158;-1.586;2024-01-30T17:41:10;10.70;65.10
61374;DHT22;47242;48.158;-1.586;2024-01-30T17:43:36;10.60;66.10
61374;DHT22;47242;48.158;-1.586;2024-01-30T17:46:02;10.50;65.40
61374;DHT22;47242;48.158;-1.586;2024-01-30T17:48:29;10.40;65.30
61374;DHT22;47242;48.158;-1.586;2024-01-30T17:50:55;10.30;65.80
61374;DHT22;47242;48.158;-1.586;2024-01-30T17:53:20;10.30;66.90
61374;DHT22;47242;48.158;-1.586;2024-01-30T17:55:46;10.20;66.60
61374;DHT22;47242;48.158;-1.586;2024-01-30T17:58:12;10.20;66.80
61374;DHT22;47242;48.158;-1.586;2024-01-30T18:00:37;10.10;66.70
61374;DHT22;47242;48.158;-1.586;2024-01-30T18:03:03;10.00;67.00
61374;DHT22;47242;48.158;-1.586;2024-01-30T18:05:29;10.00;67.50
61374;DHT22;47242;48.158;-1.586;2024-01-30T18:07:55;9.90;67.90
61374;DHT22;47242;48.158;-1.586;2024-01-30T18:10:21;9.90;68.50
61374;DHT22;47242;48.158;-1.586;2024-01-30T18:12:46;9.80;68.00
61374;DHT22;47242;48.158;-1.586;2024-01-30T18:18:25;9.70;69.10
61374;DHT22;47242;48.158;-1.586;2024-01-30T18:20:52;9.80;68.70
61374;DHT22;47242;48.158;-1.586;2024-01-30T18:23:18;9.70;68.60
61374;DHT22;47242;48.158;-1.586;2024-01-30T18:25:46;9.70;68.40
61374;DHT22;47242;48.158;-1.586;2024-01-30T18:28:17;9.60;69.30
61374;DHT22;47242;48.158;-1.586;2024-01-30T18:30:43;9.60;69.50
61374;DHT22;47242;48.158;-1.586;2024-01-30T18:33:08;9.50;69.70
61374;DHT22;47242;48.158;-1.586;2024-01-30T18:35:37;9.50;69.80
61374;DHT22;47242;48.158;-1.586;2024-01-30T18:38:02;9.50;69.80
61374;DHT22;47242;48.158;-1.586;2024-01-30T18:40:29;9.50;70.50
61374;DHT22;47242;48.158;-1.586;2024-01-30T18:42:54;9.40;70.10
61374;DHT22;47242;48.158;-1.586;2024-01-30T18:45:20;9.40;70.20
61374;DHT22;47242;48.158;-1.586;2024-01-30T18:47:46;9.30;70.50
61374;DHT22;47242;48.158;-1.586;2024-01-30T18:50:12;9.30;70.70
61374;DHT22;47242;48.158;-1.586;2024-01-30T18:52:37;9.20;70.90
61374;DHT22;47242;48.158;-1.586;2024-01-30T18:55:03;9.30;70.70
61374;DHT22;47242;48.158;-1.586;2024-01-30T18:57:29;9.20;70.40
61374;DHT22;47242;48.158;-1.586;2024-01-30T18:59:57;9.30;70.30
61374;DHT22;47242;48.158;-1.586;2024-01-30T19:02:28;9.20;70.60
61374;DHT22;47242;48.158;-1.586;2024-01-30T19:04:57;9.20;70.60
61374;DHT22;47242;48.158;-1.586;2024-01-30T19:07:24;9.20;70.40
61374;DHT22;47242;48.158;-1.586;2024-01-30T19:09:50;9.20;70.50
61374;DHT22;47242;48.158;-1.586;2024-01-30T19:12:18;9.20;70.70
61374;DHT22;47242;48.158;-1.586;2024-01-30T19:14:43;9.10;70.80
61374;DHT22;47242;48.158;-1.586;2024-01-30T19:17:09;9.20;70.90
61374;DHT22;47242;48.158;-1.586;2024-01-30T19:19:38;9.20;70.70
61374;DHT22;47242;48.158;-1.586;2024-01-30T19:22:08;9.10;70.60
61374;DHT22;47242;48.158;-1.586;2024-01-30T19:25:00;9.10;70.70
61374;DHT22;47242;48.158;-1.586;2024-01-30T19:30:36;9.10;71.00
61374;DHT22;47242;48.158;-1.586;2024-01-30T19:33:01;9.00;71.30
61374;DHT22;47242;48.158;-1.586;2024-01-30T19:39:05;9.00;71.40
61374;DHT22;47242;48.158;-1.586;2024-01-30T19:42:13;9.00;71.00
61374;DHT22;47242;48.158;-1.586;2024-01-30T19:44:32;9.10;71.00
61374;DHT22;47242;48.158;-1.586;2024-01-30T19:46:57;9.00;70.30
61374;DHT22;47242;48.158;-1.586;2024-01-30T19:49:31;8.80;69.90
61374;DHT22;47242;48.158;-1.586;2024-01-30T19:51:59;8.70;70.40
61374;DHT22;47242;48.158;-1.586;2024-01-30T19:54:29;8.70;71.70
61374;DHT22;47242;48.158;-1.586;2024-01-30T19:56:56;8.70;72.20
61374;DHT22;47242;48.158;-1.586;2024-01-30T19:59:21;8.70;72.50
61374;DHT22;47242;48.158;-1.586;2024-01-30T20:01:47;8.70;73.00
61374;DHT22;47242;48.158;-1.586;2024-01-30T20:04:13;8.70;72.80
61374;DHT22;47242;48.158;-1.586;2024-01-30T20:06:39;8.70;72.80
61374;DHT22;47242;48.158;-1.586;2024-01-30T20:09:05;8.70;72.60
61374;DHT22;47242;48.158;-1.586;2024-01-30T20:11:33;8.70;72.30
61374;DHT22;47242;48.158;-1.586;2024-01-30T20:14:02;8.70;72.50
61374;DHT22;47242;48.158;-1.586;2024-01-30T20:16:37;8.70;72.50
61374;DHT22;47242;48.158;-1.586;2024-01-30T20:19:04;8.70;72.30
61374;DHT22;47242;48.158;-1.586;2024-01-30T20:21:30;8.70;72.10
61374;DHT22;47242;48.158;-1.586;2024-01-30T20:23:56;8.60;72.20
61374;DHT22;47242;48.158;-1.586;2024-01-30T20:26:21;8.70;72.20
61374;DHT22;47242;48.158;-1.586;2024-01-30T20:28:47;8.60;72.60
61374;DHT22;47242;48.158;-1.586;2024-01-30T20:31:20;8.60;73.10
61374;DHT22;47242;48.158;-1.586;2024-01-30T20:33:49;8.60;72.90
61374;DHT22;47242;48.158;-1.586;2024-01-30T20:36:16;8.50;73.60
61374;DHT22;47242;48.158;-1.586;2024-01-30T20:38:42;8.50;73.80
61374;DHT22;47242;48.158;-1.586;2024-01-30T20:41:08;8.40;73.70
61374;DHT22;47242;48.158;-1.586;2024-01-30T20:43:42;8.40;74.20
61374;DHT22;47242;48.158;-1.586;2024-01-30T20:46:09;8.40;73.80
61374;DHT22;47242;48.158;-1.586;2024-01-30T20:48:38;8.30;73.80
61374;DHT22;47242;48.158;-1.586;2024-01-30T20:51:05;8.30;74.00
61374;DHT22;47242;48.158;-1.586;2024-01-30T20:53:32;8.30;73.70
61374;DHT22;47242;48.158;-1.586;2024-01-30T20:55:57;8.30;73.90
61374;DHT22;47242;48.158;-1.586;2024-01-30T20:58:24;8.20;73.90